Time;durP1;ratioP1;P1;durP2;ratioP2;P2;SDS_P1;SDS_P2;PMS_P1;PMS_P2;Temp;Humidity;BMP_temperature;BMP_pressure;BME280_temperature;BME280_humidity;BME280_pressure;Samples;Min_cycle;Max_cycle;Signal;HPM_P1;HPM_P2
2023/02/09 00:01:18;;;;;;;47.47;22.80;;;;;;;-3.42;100.00;102676.50;4985013;28;20042;-85
2023/02/09 00:03:45;;;;;;;46.75;23.58;;;;;;;-3.45;100.00;102678.84;4980674;28;20406;-78
2023/02/09 00:06:16;;;;;;;44.17;21.63;;;;;;;-3.44;100.00;102672.94;4998926;28;20449;-81
2023/02/09 00:08:43;;;;;;;49.10;23.40;;;;;;;-3.46;100.00;102671.91;4991227;28;20053;-77
2023/02/09 00:14:10;;;;;;;44.65;23.15;;;;;;;-3.51;100.00;102679.25;4992464;28;20067;-79
2023/02/09 00:16:37;;;;;;;48.65;21.85;;;;;;;-3.54;100.00;102678.09;4969197;28;20051;-81
2023/02/09 00:19:03;;;;;;;40.22;21.42;;;;;;;-3.60;100.00;102673.34;4995130;28;20076;-77
2023/02/09 00:21:30;;;;;;;38.95;20.42;;;;;;;-3.60;100.00;102675.91;5006178;28;20846;-77
2023/02/09 00:23:59;;;;;;;46.42;22.65;;;;;;;-3.64;100.00;102673.00;4979714;28;20560;-77
2023/02/09 00:26:25;;;;;;;44.17;24.02;;;;;;;-3.73;100.00;102674.03;4975991;28;20074;-77
2023/02/09 00:28:52;;;;;;;41.35;21.65;;;;;;;-3.77;100.00;102669.41;4983886;28;20042;-78
2023/02/09 00:31:18;;;;;;;42.67;22.15;;;;;;;-3.72;100.00;102663.00;4973881;28;20620;-84
2023/02/09 00:33:45;;;;;;;45.13;23.05;;;;;;;-3.63;100.00;102670.56;4994041;28;20046;-76
2023/02/09 00:36:14;;;;;;;39.08;22.75;;;;;;;-3.70;100.00;102676.84;4986495;28;20056;-78
2023/02/09 00:38:42;;;;;;;39.35;23.20;;;;;;;-3.78;100.00;102676.97;5000214;28;20046;-83
2023/02/09 00:41:09;;;;;;;49.05;22.42;;;;;;;-3.83;100.00;102674.94;4999666;28;20046;-80
2023/02/09 00:43:36;;;;;;;44.17;22.25;;;;;;;-3.82;100.00;102673.25;4990713;28;20052;-78
2023/02/09 00:46:03;;;;;;;43.70;22.38;;;;;;;-3.82;100.00;102669.06;4999442;28;20053;-76
2023/02/09 00:48:30;;;;;;;50.67;23.98;;;;;;;-3.75;100.00;102656.78;4982457;28;20090;-77
2023/02/09 00:50:58;;;;;;;42.20;22.73;;;;;;;-3.75;100.00;102649.97;4991600;28;20057;-78
2023/02/09 00:53:24;;;;;;;49.20;23.95;;;;;;;-3.72;100.00;102649.34;5018060;28;20046;-77
2023/02/09 00:55:52;;;;;;;49.20;23.05;;;;;;;-3.74;100.00;102645.75;4999871;28;20052;-77
2023/02/09 00:58:19;;;;;;;38.72;22.75;;;;;;;-3.71;100.00;102652.00;4996869;28;20042;-76
2023/02/09 01:00:45;;;;;;;42.20;21.95;;;;;;;-3.69;100.00;102647.94;5002193;28;20481;-86
2023/02/09 01:03:12;;;;;;;47.63;22.15;;;;;;;-3.64;100.00;102648.28;5012492;28;20044;-78
2023/02/09 01:05:40;;;;;;;49.25;23.45;;;;;;;-3.69;100.00;102639.34;4998040;28;20046;-79
2023/02/09 01:08:07;;;;;;;46.30;23.77;;;;;;;-3.71;100.00;102643.44;4977887;28;20073;-77
2023/02/09 01:10:34;;;;;;;39.60;19.80;;;;;;;-3.70;100.00;102632.44;4995618;28;20057;-80
2023/02/09 01:13:12;;;;;;;43.33;22.73;;;;;;;-3.70;100.00;102630.78;4997646;28;20050;-76
2023/02/09 01:15:40;;;;;;;48.38;23.20;;;;;;;-3.71;100.00;102626.41;4995731;28;20050;-81
2023/02/09 01:18:07;;;;;;;49.13;21.88;;;;;;;-3.76;100.00;102627.72;4981836;28;20046;-81
2023/02/09 01:20:34;;;;;;;51.13;22.00;;;;;;;-3.82;100.00;102625.56;4992299;28;20125;-79
2023/02/09 01:23:00;;;;;;;46.10;22.52;;;;;;;-3.77;100.00;102622.47;4989353;28;20050;-80
2023/02/09 01:25:27;;;;;;;45.35;22.60;;;;;;;-3.80;100.00;102617.13;5018636;28;20030;-78
2023/02/09 01:27:53;;;;;;;47.33;22.95;;;;;;;-3.85;100.00;102614.16;5012637;28;20057;-78
2023/02/09 01:30:20;;;;;;;43.28;20.75;;;;;;;-3.89;100.00;102617.25;4998789;28;20053;-78
2023/02/09 01:32:46;;;;;;;38.95;21.42;;;;;;;-3.92;100.00;102615.34;5008411;28;20043;-78
2023/02/09 01:35:12;;;;;;;47.38;21.08;;;;;;;-3.90;100.00;102616.34;4989251;28;20043;-80
2023/02/09 01:37:39;;;;;;;39.85;19.67;;;;;;;-3.82;100.00;102619.53;5009173;28;20048;-79
2023/02/09 01:40:07;;;;;;;44.30;22.10;;;;;;;-3.88;100.00;102619.94;4999924;28;20050;-92
2023/02/09 01:42:33;;;;;;;44.00;23.67;;;;;;;-3.83;100.00;102617.75;4988736;28;20056;-78
2023/02/09 01:45:43;;;;;;;47.63;23.67;;;;;;;-3.87;100.00;102608.94;5002836;28;20093;-79
2023/02/09 01:48:09;;;;;;;39.70;20.50;;;;;;;-3.96;100.00;102599.59;5006978;28;20492;-78
2023/02/09 01:50:42;;;;;;;43.25;19.50;;;;;;;-4.00;100.00;102606.16;5006502;28;20046;-80
2023/02/09 01:53:09;;;;;;;45.33;23.88;;;;;;;-4.02;100.00;102602.56;4999196;28;20038;-80
2023/02/09 01:55:44;;;;;;;43.53;21.17;;;;;;;-4.06;100.00;102601.41;4996324;28;20340;-78
2023/02/09 01:58:15;;;;;;;43.22;21.92;;;;;;;-4.07;100.00;102593.63;4982843;28;20046;-78
2023/02/09 02:00:42;;;;;;;39.15;21.70;;;;;;;-4.04;100.00;102589.66;5000074;28;20050;-80
2023/02/09 02:03:16;;;;;;;43.00;22.00;;;;;;;-4.04;100.00;102578.50;4992317;28;20053;-78
2023/02/09 02:05:47;;;;;;;43.20;21.23;;;;;;;-4.01;100.00;102577.09;5000480;28;20049;-80
2023/02/09 02:08:21;;;;;;;44.35;21.05;;;;;;;-4.03;100.00;102565.88;4989617;28;20050;-80
2023/02/09 02:10:47;;;;;;;47.10;21.98;;;;;;;-4.09;100.00;102562.81;4991183;28;20050;-79
2023/02/09 02:13:14;;;;;;;38.08;19.50;;;;;;;-4.12;100.00;102554.88;5003663;28;20074;-78
2023/02/09 02:16:05;;;;;;;39.55;20.23;;;;;;;-4.15;100.00;102554.63;4993544;28;20043;-78
2023/02/09 02:18:41;;;;;;;39.40;19.15;;;;;;;-4.18;100.00;102550.16;4996672;28;20073;-77
2023/02/09 02:22:00;;;;;;;38.20;19.40;;;;;;;-4.20;100.00;102546.59;4996451;28;20044;-78
2023/02/09 02:25:03;;;;;;;39.22;20.23;;;;;;;-4.17;100.00;102546.84;4995887;28;20050;-79
2023/02/09 02:28:10;;;;;;;42.30;21.23;;;;;;;-4.14;100.00;102538.50;5004973;28;20046;-80
2023/02/09 02:31:13;;;;;;;36.45;16.75;;;;;;;-4.23;100.00;102541.22;4979791;28;20050;-79
2023/02/09 02:33:57;;;;;;;37.42;19.20;;;;;;;-4.24;100.00;102533.41;4995929;28;20038;-77
2023/02/09 02:36:58;;;;;;;35.80;19.52;;;;;;;-4.26;100.00;102533.31;4999091;28;20094;-78
2023/02/09 02:39:45;;;;;;;37.40;18.98;;;;;;;-4.21;100.00;102531.09;4982398;28;20046;-77
2023/02/09 02:42:48;;;;;;;36.83;17.83;;;;;;;-4.23;100.00;102541.22;4990769;28;20046;-77
2023/02/09 02:45:33;;;;;;;36.53;19.60;;;;;;;-4.28;100.00;102533.94;4990933;28;20108;-81
2023/02/09 02:48:27;;;;;;;34.40;18.25;;;;;;;-4.35;100.00;102527.44;4991484;28;20041;-76
2023/02/09 02:51:02;;;;;;;32.60;17.65;;;;;;;-4.36;100.00;102529.09;4989738;28;20042;-80
2023/02/09 02:53:33;;;;;;;43.00;16.38;;;;;;;-4.36;100.00;102531.63;4999154;28;20054;-76
2023/02/09 02:56:13;;;;;;;33.45;16.13;;;;;;;-4.35;100.00;102527.44;5005802;28;20041;-78
2023/02/09 02:58:44;;;;;;;31.47;16.43;;;;;;;-4.35;100.00;102522.31;5008528;28;20046;-85
2023/02/09 03:01:24;;;;;;;28.63;16.23;;;;;;;-4.28;100.00;102526.28;4985695;28;20039;-81
2023/02/09 03:03:53;;;;;;;29.35;15.82;;;;;;;-4.25;100.00;102518.84;5002197;28;20070;-79
2023/02/09 03:06:23;;;;;;;30.13;15.27;;;;;;;-4.34;100.00;102518.97;4969116;28;20114;-88
2023/02/09 03:09:00;;;;;;;26.55;16.10;;;;;;;-4.36;100.00;102512.84;4990354;28;20683;-83
2023/02/09 03:11:39;;;;;;;31.53;15.93;;;;;;;-4.31;100.00;102514.13;5002183;28;20053;-84
2023/02/09 03:14:42;;;;;;;31.07;16.40;;;;;;;-4.34;100.00;102511.31;4991808;28;20038;-80
2023/02/09 03:20:48;;;;;;;27.45;15.35;;;;;;;-4.33;100.00;102510.53;4995340;28;20038;-84
2023/02/09 03:23:37;;;;;;;32.67;16.48;;;;;;;-4.34;100.00;102508.75;5000606;28;20058;-83
2023/02/09 03:26:16;;;;;;;31.30;15.55;;;;;;;-4.35;100.00;102512.09;4992221;28;20038;-80
2023/02/09 03:28:56;;;;;;;30.40;14.63;;;;;;;-4.33;100.00;102510.53;4988736;28;20118;-79
2023/02/09 03:31:27;;;;;;;34.33;15.93;;;;;;;-4.32;100.00;102512.34;4993804;28;20042;-80
2023/02/09 03:34:03;;;;;;;29.55;15.27;;;;;;;-4.35;100.00;102512.97;4999227;28;20092;-81
2023/02/09 03:36:49;;;;;;;23.53;13.20;;;;;;;-4.39;100.00;102510.94;4977183;28;20812;-79
2023/02/09 03:39:18;;;;;;;34.17;15.43;;;;;;;-4.43;100.00;102501.25;4994072;28;20050;-79
2023/02/09 03:41:50;;;;;;;32.00;15.90;;;;;;;-4.45;100.00;102515.53;5006994;28;20050;-80
2023/02/09 03:44:30;;;;;;;27.33;13.82;;;;;;;-4.40;100.00;102509.16;4991691;28;20066;-79
2023/02/09 03:47:10;;;;;;;30.60;13.80;;;;;;;-4.45;100.00;102504.44;4983174;28;20121;-79
2023/02/09 03:49:40;;;;;;;27.15;13.93;;;;;;;-4.40;100.00;102501.47;4985712;28;20485;-79
2023/02/09 03:52:11;;;;;;;25.15;12.98;;;;;;;-4.38;100.00;102504.16;5004401;28;20045;-79
2023/02/09 03:54:42;;;;;;;31.27;13.93;;;;;;;-4.38;99.87;102507.63;4985845;28;20356;-79
2023/02/09 03:57:12;;;;;;;31.25;13.45;;;;;;;-4.34;99.83;102493.41;4991110;28;20034;-78
2023/02/09 03:59:45;;;;;;;27.85;12.48;;;;;;;-4.33;99.55;102492.66;4969090;28;20426;-78
2023/02/09 04:02:11;;;;;;;27.00;12.20;;;;;;;-4.35;99.58;102494.19;4992582;28;20053;-79
2023/02/09 04:04:42;;;;;;;19.88;11.20;;;;;;;-4.33;98.67;102488.44;4976941;28;20145;-83
2023/02/09 04:07:09;;;;;;;25.60;11.63;;;;;;;-4.40;99.06;102486.13;4978985;28;20049;-81
2023/02/09 04:09:37;;;;;;;24.52;12.80;;;;;;;-4.40;99.25;102491.25;4977002;28;20058;-89
2023/02/09 04:12:05;;;;;;;28.67;14.82;;;;;;;-4.42;99.03;102487.69;4990866;28;20050;-77
2023/02/09 04:14:31;;;;;;;23.02;13.20;;;;;;;-4.40;99.04;102481.03;5001775;28;20057;-83
2023/02/09 04:16:58;;;;;;;26.25;12.10;;;;;;;-4.42;99.17;102477.47;4985620;28;20046;-78
2023/02/09 04:19:24;;;;;;;21.88;12.70;;;;;;;-4.44;99.31;102476.44;4994420;28;20075;-76
2023/02/09 04:28:56;;;;;;;21.40;13.00;;;;;;;-4.54;99.22;102477.34;4920786;29;20051;-81
2023/02/09 04:31:23;;;;;;;24.67;11.10;;;;;;;-4.58;99.39;102470.19;4850435;29;20049;-77
2023/02/09 04:33:49;;;;;;;21.87;12.13;;;;;;;-4.60;99.93;102465.72;4957303;28;20062;-77
2023/02/09 04:36:16;;;;;;;24.00;12.43;;;;;;;-4.62;100.00;102468.16;4986683;28;20071;-78
2023/02/09 04:39:01;;;;;;;23.13;12.20;;;;;;;-4.71;99.71;102468.28;4973157;28;20168;-80
2023/02/09 04:41:27;;;;;;;25.93;12.20;;;;;;;-4.70;99.79;102476.88;4979560;28;20369;-77
2023/02/09 04:43:54;;;;;;;25.20;14.10;;;;;;;-4.71;100.00;102475.06;4973857;28;20094;-78
2023/02/09 04:46:20;;;;;;;25.03;13.73;;;;;;;-4.71;100.00;102470.84;4971612;28;20178;-76
2023/02/09 04:48:47;;;;;;;24.70;12.70;;;;;;;-4.65;100.00;102461.13;4950703;28;20050;-76
2023/02/09 04:51:13;;;;;;;24.90;13.20;;;;;;;-4.60;100.00;102452.94;4968496;28;20050;-76
2023/02/09 04:53:40;;;;;;;22.17;12.93;;;;;;;-4.63;99.52;102451.03;4974616;28;20044;-76
2023/02/09 04:56:07;;;;;;;32.47;13.48;;;;;;;-4.69;99.95;102450.56;4974240;28;20050;-78
2023/02/09 05:01:23;;;;;;;25.48;13.25;;;;;;;-4.82;100.00;102456.31;4977803;28;20042;-76
2023/02/09 05:03:49;;;;;;;28.70;13.83;;;;;;;-4.86;100.00;102446.63;4959051;28;20054;-76
2023/02/09 05:06:16;;;;;;;25.20;12.95;;;;;;;-4.90;100.00;102444.53;4964966;28;20119;-77
2023/02/09 05:08:43;;;;;;;20.30;11.87;;;;;;;-4.94;100.00;102443.41;4977759;28;20043;-77
2023/02/09 05:11:10;;;;;;;21.57;12.03;;;;;;;-4.94;100.00;102435.75;4959108;28;20141;-80
2023/02/09 05:13:36;;;;;;;23.43;12.67;;;;;;;-4.93;100.00;102440.06;4954744;28;20071;-82
2023/02/09 05:19:02;;;;;;;24.00;11.73;;;;;;;-4.90;100.00;102442.00;4961150;28;20055;-80
2023/02/09 05:21:34;;;;;;;18.25;10.93;;;;;;;-4.84;100.00;102440.88;4968779;28;20042;-77
2023/02/09 05:24:00;;;;;;;31.07;13.23;;;;;;;-4.80;99.90;102446.22;4990213;28;20064;-76
2023/02/09 05:26:27;;;;;;;20.52;10.27;;;;;;;-4.80;100.00;102438.56;4987139;28;20088;-79
2023/02/09 05:28:53;;;;;;;19.13;9.83;;;;;;;-4.82;99.52;102441.88;4974773;28;20066;-76
2023/02/09 05:31:20;;;;;;;20.45;10.45;;;;;;;-4.86;99.65;102437.28;4993025;28;20034;-76
2023/02/09 05:33:46;;;;;;;22.43;11.03;;;;;;;-4.73;99.69;102438.25;4996116;28;20117;-81
2023/02/09 05:36:13;;;;;;;22.17;10.80;;;;;;;-4.70;99.54;102434.31;4995142;28;20038;-78
2023/02/09 05:38:40;;;;;;;20.93;10.07;;;;;;;-4.71;98.53;102424.84;4995578;28;20084;-84
2023/02/09 05:41:09;;;;;;;22.20;10.73;;;;;;;-4.65;98.61;102421.91;5006326;28;20503;-81
2023/02/09 05:43:36;;;;;;;19.65;10.27;;;;;;;-4.63;98.28;102428.03;4998845;28;20077;-80
2023/02/09 05:46:03;;;;;;;23.60;11.57;;;;;;;-4.63;97.93;102424.59;5000701;28;20120;-76
2023/02/09 05:48:30;;;;;;;17.30;9.63;;;;;;;-4.59;98.05;102430.06;4995188;28;20492;-79
2023/02/09 05:50:56;;;;;;;18.90;9.40;;;;;;;-4.60;97.91;102432.50;4997215;28;20388;-78
2023/02/09 05:53:23;;;;;;;19.38;10.60;;;;;;;-4.66;97.78;102427.78;4989613;28;20347;-78
2023/02/09 05:55:49;;;;;;;17.33;8.65;;;;;;;-4.72;98.13;102417.97;4992391;28;20046;-78
2023/02/09 05:58:16;;;;;;;18.67;9.40;;;;;;;-4.69;98.17;102423.31;4980962;28;20484;-78
2023/02/09 06:00:42;;;;;;;17.83;10.17;;;;;;;-4.61;97.81;102418.84;4997739;28;20117;-78
2023/02/09 06:03:09;;;;;;;20.83;8.90;;;;;;;-4.59;97.04;102419.84;4993402;28;20057;-77
2023/02/09 06:05:35;;;;;;;15.75;8.43;;;;;;;-4.55;96.51;102423.53;4988908;28;20053;-77
2023/02/09 06:08:01;;;;;;;19.85;10.07;;;;;;;-4.50;96.17;102430.84;4976586;28;20057;-79
2023/02/09 06:10:28;;;;;;;19.70;9.25;;;;;;;-4.41;95.15;102422.13;5003417;28;20152;-81
2023/02/09 06:12:54;;;;;;;16.15;9.52;;;;;;;-4.42;94.63;102425.44;5007372;28;20113;-78
2023/02/09 06:15:21;;;;;;;17.77;9.18;;;;;;;-4.41;94.84;102423.00;5010525;28;20042;-77
2023/02/09 06:17:47;;;;;;;14.50;8.33;;;;;;;-4.32;94.42;102428.84;4994413;28;20050;-77
2023/02/09 06:20:14;;;;;;;17.38;9.52;;;;;;;-4.28;93.95;102437.66;4994446;28;20049;-76
2023/02/09 06:22:40;;;;;;;25.10;10.30;;;;;;;-4.22;92.50;102440.72;4973928;28;20047;-78
2023/02/09 06:25:07;;;;;;;14.73;8.30;;;;;;;-4.29;93.24;102443.53;4990797;28;20045;-78
2023/02/09 06:27:33;;;;;;;19.67;8.65;;;;;;;-4.36;93.44;102448.94;4998329;28;20045;-76
2023/02/09 06:30:00;;;;;;;18.67;9.10;;;;;;;-4.34;93.95;102455.06;4992234;28;20053;-77
2023/02/09 06:32:26;;;;;;;17.40;9.30;;;;;;;-4.32;93.78;102466.31;4999198;28;20069;-77
2023/02/09 06:34:53;;;;;;;17.70;9.07;;;;;;;-4.25;93.42;102467.69;4985609;28;20042;-77
2023/02/09 06:37:19;;;;;;;17.08;9.65;;;;;;;-4.17;93.26;102474.34;5001206;28;20046;-77
2023/02/09 06:39:46;;;;;;;18.95;9.88;;;;;;;-4.12;92.77;102470.44;4989841;28;20458;-78
2023/02/09 06:42:12;;;;;;;17.27;8.33;;;;;;;-4.11;92.51;102484.16;4983267;28;20499;-79
2023/02/09 06:44:38;;;;;;;20.08;8.85;;;;;;;-4.11;92.55;102476.47;5004198;28;20424;-76
2023/02/09 06:47:05;;;;;;;17.58;8.88;;;;;;;-4.12;92.46;102465.34;4996726;28;20046;-77
2023/02/09 06:49:31;;;;;;;14.35;10.07;;;;;;;-4.06;91.99;102453.06;4996521;28;20045;-76
2023/02/09 06:51:58;;;;;;;27.15;10.60;;;;;;;-4.04;91.69;102453.16;4988651;28;20038;-77
2023/02/09 06:54:25;;;;;;;17.85;8.75;;;;;;;-3.96;91.33;102436.78;4999867;28;20057;-76
2023/02/09 06:56:51;;;;;;;15.85;9.10;;;;;;;-3.95;90.95;102443.69;4991650;28;20776;-80
2023/02/09 06:59:18;;;;;;;26.02;9.73;;;;;;;-3.89;90.42;102458.63;4994715;28;20050;-78
2023/02/09 07:01:44;;;;;;;18.92;8.70;;;;;;;-3.94;90.39;102447.13;4999692;28;20426;-80
2023/02/09 07:04:11;;;;;;;15.70;9.27;;;;;;;-3.96;90.96;102449.56;5008562;28;20472;-79
2023/02/09 07:06:37;;;;;;;17.77;8.32;;;;;;;-3.94;91.22;102449.69;4984697;28;20046;-77
2023/02/09 07:09:04;;;;;;;16.95;8.55;;;;;;;-3.88;90.57;102457.84;4996319;28;20045;-78
2023/02/09 07:11:30;;;;;;;18.80;8.50;;;;;;;-3.87;90.83;102460.53;4971667;28;20511;-78
2023/02/09 07:13:57;;;;;;;22.10;11.05;;;;;;;-3.83;90.77;102462.56;5001092;28;20049;-81
2023/02/09 07:16:23;;;;;;;18.42;9.45;;;;;;;-3.78;89.98;102469.69;4987061;28;20088;-77
2023/02/09 07:18:50;;;;;;;15.05;8.55;;;;;;;-3.75;89.82;102481.06;4990168;28;20053;-78
2023/02/09 07:21:18;;;;;;;26.58;10.38;;;;;;;-3.70;89.79;102481.44;4992498;28;20038;-88
2023/02/09 07:23:46;;;;;;;19.42;9.18;;;;;;;-3.62;89.73;102479.44;4980971;28;20444;-79
2023/02/09 07:26:16;;;;;;;13.43;7.60;;;;;;;-3.59;89.33;102479.72;4992036;28;20481;-80
2023/02/09 07:28:43;;;;;;;17.15;9.27;;;;;;;-3.52;89.20;102477.75;5001055;28;20675;-80
2023/02/09 07:31:13;;;;;;;17.17;8.90;;;;;;;-3.40;88.41;102484.56;4981988;28;20042;-78
2023/02/09 07:33:39;;;;;;;19.20;8.88;;;;;;;-3.29;86.97;102481.19;4982274;28;20503;-78
2023/02/09 07:36:09;;;;;;;20.13;8.43;;;;;;;-3.19;87.34;102486.25;4993327;28;20037;-80
2023/02/09 07:38:36;;;;;;;20.35;8.55;;;;;;;-3.09;86.67;102495.53;4995272;28;20100;-78
2023/02/09 07:41:05;;;;;;;20.55;9.35;;;;;;;-3.00;85.88;102490.19;4987492;28;20073;-78
2023/02/09 07:43:33;;;;;;;22.10;9.88;;;;;;;-2.90;84.68;102495.25;5005336;28;20038;-78
2023/02/09 07:46:02;;;;;;;16.23;7.95;;;;;;;-2.78;84.39;102485.03;4980855;28;20045;-78
2023/02/09 07:48:29;;;;;;;18.38;8.75;;;;;;;-2.68;83.12;102481.50;4998327;28;20099;-79
2023/02/09 07:50:55;;;;;;;19.33;10.30;;;;;;;-2.60;83.57;102482.06;5002455;28;20042;-78
2023/02/09 07:53:22;;;;;;;18.33;8.05;;;;;;;-2.52;83.03;102486.06;4995280;28;20046;-87
2023/02/09 07:55:48;;;;;;;16.48;8.73;;;;;;;-2.46;82.78;102483.97;4985756;28;20080;-82
2023/02/09 07:58:17;;;;;;;16.85;9.10;;;;;;;-2.37;82.72;102481.19;5005105;28;20057;-83
2023/02/09 08:00:44;;;;;;;23.85;9.35;;;;;;;-2.31;82.10;102480.75;5007381;28;20046;-77
2023/02/09 08:03:11;;;;;;;23.38;9.45;;;;;;;-2.24;82.08;102480.38;4979032;28;20057;-79
2023/02/09 08:05:50;;;;;;;16.98;9.20;;;;;;;-2.19;82.08;102476.47;4974580;28;20050;-80
2023/02/09 08:08:16;;;;;;;21.05;9.77;;;;;;;-2.11;81.47;102466.78;4998116;28;20053;-80
2023/02/09 08:10:43;;;;;;;18.58;8.45;;;;;;;-2.03;81.92;102475.94;4991327;28;20085;-78
2023/02/09 08:13:10;;;;;;;21.70;9.52;;;;;;;-1.95;80.28;102468.78;4991783;28;20041;-80
2023/02/09 08:15:48;;;;;;;19.08;8.80;;;;;;;-1.88;80.37;102453.03;4995564;28;20670;-81
2023/02/09 08:18:19;;;;;;;22.05;8.68;;;;;;;-1.81;79.84;102460.38;4989811;28;20096;-82
2023/02/09 08:20:47;;;;;;;14.63;7.78;;;;;;;-1.74;79.61;102460.03;4988789;28;20038;-78
2023/02/09 08:23:26;;;;;;;19.05;8.63;;;;;;;-1.70;79.20;102456.00;4989815;28;20062;-78
2023/02/09 08:25:54;;;;;;;16.50;8.25;;;;;;;-1.63;79.42;102452.19;4992636;28;20049;-79
2023/02/09 08:28:22;;;;;;;15.30;9.07;;;;;;;-1.58;78.55;102456.84;5018262;28;20107;-79
2023/02/09 08:30:49;;;;;;;16.52;8.45;;;;;;;-1.54;78.37;102460.53;4996435;28;20038;-78
2023/02/09 08:33:16;;;;;;;17.67;8.65;;;;;;;-1.50;77.84;102448.00;4996820;28;20042;-83
2023/02/09 08:35:43;;;;;;;17.98;9.60;;;;;;;-1.43;77.05;102457.03;4979964;28;20074;-82
2023/02/09 08:38:10;;;;;;;17.75;8.75;;;;;;;-1.38;77.24;102454.78;5003358;28;20037;-80
2023/02/09 08:40:40;;;;;;;16.30;8.30;;;;;;;-1.33;77.35;102463.69;4982532;28;20042;-80
2023/02/09 08:43:07;;;;;;;17.50;8.38;;;;;;;-1.22;75.70;102459.31;4984736;28;20241;-79
2023/02/09 08:45:40;;;;;;;14.02;7.97;;;;;;;-1.11;73.70;102460.91;4993099;28;20047;-79
2023/02/09 08:48:08;;;;;;;15.65;8.13;;;;;;;-1.05;74.21;102466.47;4984580;28;20042;-79
2023/02/09 08:50:35;;;;;;;19.08;8.80;;;;;;;-0.98;73.39;102467.75;4989029;28;20054;-79
2023/02/09 08:53:02;;;;;;;19.02;9.20;;;;;;;-0.92;73.18;102475.91;4993221;28;20543;-81
2023/02/09 08:55:31;;;;;;;16.35;8.73;;;;;;;-0.89;73.32;102478.66;4997256;28;20046;-91
2023/02/09 08:57:57;;;;;;;17.10;8.85;;;;;;;-0.82;73.70;102472.28;4978808;28;20062;-82
2023/02/09 09:00:24;;;;;;;16.88;9.65;;;;;;;-0.74;74.11;102472.78;4979224;28;20045;-78
2023/02/09 09:02:51;;;;;;;13.38;8.57;;;;;;;-0.68;72.56;102473.19;5001461;28;20038;-78
2023/02/09 09:05:18;;;;;;;19.90;9.82;;;;;;;-0.61;72.46;102485.66;4977984;28;20147;-82
2023/02/09 09:07:44;;;;;;;13.73;9.13;;;;;;;-0.54;71.67;102479.25;4994003;28;20133;-79
2023/02/09 09:10:12;;;;;;;17.67;8.18;;;;;;;-0.50;71.28;102476.06;4979084;28;20144;-84
2023/02/09 09:12:39;;;;;;;18.85;7.93;;;;;;;-0.47;71.57;102484.00;4990347;28;20052;-78
2023/02/09 09:15:06;;;;;;;15.98;8.73;;;;;;;-0.42;72.44;102476.56;5003043;28;20176;-86
2023/02/09 09:17:32;;;;;;;16.90;8.35;;;;;;;-0.36;72.69;102487.28;4992954;28;20052;-79
2023/02/09 09:19:59;;;;;;;18.65;9.55;;;;;;;-0.29;72.11;102486.00;4976800;28;20101;-78
2023/02/09 09:22:26;;;;;;;16.23;8.80;;;;;;;-0.24;71.07;102488.06;4978004;28;20057;-77
2023/02/09 09:24:54;;;;;;;17.40;8.68;;;;;;;-0.19;70.70;102486.69;4968843;28;20067;-78
2023/02/09 09:27:21;;;;;;;18.30;9.05;;;;;;;-0.14;69.74;102478.34;4987836;28;20031;-82
2023/02/09 09:29:48;;;;;;;15.48;9.40;;;;;;;-0.09;70.11;102483.03;4990398;28;20046;-78
2023/02/09 09:32:14;;;;;;;17.73;7.85;;;;;;;-0.02;70.54;102490.34;4988903;28;20050;-77
2023/02/09 09:34:43;;;;;;;15.55;9.85;;;;;;;0.04;69.78;102494.09;4988294;28;20052;-81
2023/02/09 09:37:09;;;;;;;15.70;8.80;;;;;;;0.12;68.80;102503.22;4991553;28;20074;-80
2023/02/09 09:39:36;;;;;;;16.13;8.98;;;;;;;0.16;68.61;102500.91;4994015;28;20096;-79
2023/02/09 09:42:04;;;;;;;17.50;7.97;;;;;;;0.22;67.55;102499.53;4996634;28;20148;-79
2023/02/09 09:44:38;;;;;;;17.95;8.85;;;;;;;0.27;66.84;102504.16;4992275;28;20460;-78
2023/02/09 09:47:16;;;;;;;15.98;8.10;;;;;;;0.27;66.52;102501.59;4983578;28;20046;-78
2023/02/09 09:49:43;;;;;;;16.98;8.93;;;;;;;0.37;66.33;102497.03;4998659;28;20101;-79
2023/02/09 09:52:29;;;;;;;17.80;7.97;;;;;;;0.45;66.33;102499.28;4976023;28;20389;-82
2023/02/09 09:54:58;;;;;;;18.15;9.50;;;;;;;0.56;66.00;102494.81;5007610;28;20454;-80
2023/02/09 09:57:29;;;;;;;16.35;8.88;;;;;;;0.68;65.36;102504.06;4974719;28;20042;-77
2023/02/09 09:59:57;;;;;;;16.77;9.15;;;;;;;0.76;65.61;102500.28;4990647;28;20073;-76
2023/02/09 10:02:33;;;;;;;14.45;8.93;;;;;;;0.82;65.29;102500.63;4976953;28;20058;-78
2023/02/09 10:05:25;;;;;;;18.02;9.65;;;;;;;0.85;64.08;102497.34;4976525;28;20487;-77
2023/02/09 10:08:12;;;;;;;15.00;8.35;;;;;;;0.94;64.68;102501.41;4974862;28;20073;-78
2023/02/09 10:10:47;;;;;;;16.45;9.13;;;;;;;1.07;64.13;102500.44;4984795;28;20047;-79
2023/02/09 10:13:35;;;;;;;;;;;;;;;1.17;64.08;102496.72;4981713;28;20077;-81
2023/02/09 10:16:03;;;;;;;17.10;7.93;;;;;;;1.34;64.54;102494.25;4996007;28;19933;-82
2023/02/09 10:18:34;;;;;;;12.85;8.57;;;;;;;1.43;63.03;102487.03;4997265;28;20046;-78
2023/02/09 10:21:02;;;;;;;16.45;8.18;;;;;;;1.51;62.89;102488.38;4998596;28;20066;-77
2023/02/09 10:23:50;;;;;;;14.23;9.07;;;;;;;1.61;63.03;102494.97;4988968;28;20059;-78
2023/02/09 10:26:34;;;;;;;16.90;8.32;;;;;;;1.67;62.04;102489.25;4990718;28;20049;-87
2023/02/09 10:29:24;;;;;;;14.98;8.02;;;;;;;1.69;62.67;102498.84;4991164;28;20057;-86
2023/02/09 10:32:06;;;;;;;16.23;8.20;;;;;;;1.72;61.77;102501.63;4988973;28;20042;-76
2023/02/09 10:34:39;;;;;;;15.88;8.43;;;;;;;1.76;62.07;102493.25;4986797;28;20157;-81
2023/02/09 10:37:19;;;;;;;13.60;9.13;;;;;;;1.83;61.62;102493.63;4990019;28;20069;-80
2023/02/09 10:39:54;;;;;;;20.02;7.97;;;;;;;1.88;62.12;102487.91;4971444;28;20052;-80
2023/02/09 10:42:28;;;;;;;13.63;9.05;;;;;;;2.02;61.76;102493.84;4980541;28;20595;-77
2023/02/09 10:45:04;;;;;;;17.10;8.75;;;;;;;2.13;60.95;102491.84;4987703;28;20053;-80
2023/02/09 10:47:31;;;;;;;12.05;7.85;;;;;;;2.23;61.04;102490.63;4979003;28;20050;-82
2023/02/09 10:50:13;;;;;;;12.75;8.18;;;;;;;2.31;60.58;102474.75;4972234;28;20405;-80
2023/02/09 10:53:00;;;;;;;20.75;8.13;;;;;;;2.40;59.35;102476.06;4972032;28;20045;-78
2023/02/09 10:55:35;;;;;;;18.45;9.73;;;;;;;2.46;59.21;102468.63;4973788;28;20042;-81
2023/02/09 10:58:10;;;;;;;16.92;8.82;;;;;;;2.55;59.97;102481.16;4987854;28;20507;-79
2023/02/09 11:01:07;;;;;;;23.13;11.40;;;;;;;2.55;57.59;102465.66;4989597;28;20138;-77
2023/02/09 11:03:36;;;;;;;13.10;8.32;;;;;;;2.57;57.22;102469.19;4995063;28;20111;-78
2023/02/09 11:06:19;;;;;;;11.57;7.13;;;;;;;2.59;58.22;102458.13;4982449;28;20413;-79
2023/02/09 11:09:01;;;;;;;20.63;8.13;;;;;;;2.63;57.20;102460.09;4991622;28;20154;-82
2023/02/09 11:11:35;;;;;;;21.08;9.20;;;;;;;2.68;57.34;102460.31;4992043;28;20046;-78
2023/02/09 11:14:02;;;;;;;14.80;7.97;;;;;;;2.77;56.97;102436.66;4972756;28;20051;-79
2023/02/09 11:16:54;;;;;;;17.55;7.45;;;;;;;2.85;57.38;102424.97;4990116;28;20046;-81
2023/02/09 11:19:21;;;;;;;17.98;8.35;;;;;;;2.92;56.71;102434.84;4987774;28;20133;-81
2023/02/09 11:22:18;;;;;;;15.50;8.65;;;;;;;2.94;55.47;102433.22;4997561;28;20046;-85
2023/02/09 11:24:50;;;;;;;16.42;8.38;;;;;;;2.96;55.78;102438.50;4996628;28;20050;-76
2023/02/09 11:28:00;;;;;;;15.43;7.97;;;;;;;2.96;55.07;102444.53;4996923;28;20338;-78
2023/02/09 11:30:56;;;;;;;14.32;7.63;;;;;;;2.94;54.28;102430.63;4987127;28;20034;-78
2023/02/09 11:33:33;;;;;;;10.73;7.18;;;;;;;2.90;55.29;102412.31;4991383;28;20097;-84
2023/02/09 11:36:36;;;;;;;12.20;8.07;;;;;;;2.94;54.58;102406.47;4983313;28;20133;-79
2023/02/09 11:39:44;;;;;;;12.98;7.50;;;;;;;2.95;54.05;102403.94;4968568;28;20055;-79
2023/02/09 11:45:19;;;;;;;17.15;8.27;;;;;;;2.96;54.69;102413.50;4993986;28;20053;-77
2023/02/09 11:48:13;;;;;;;13.05;8.38;;;;;;;2.97;54.22;102412.69;4992402;28;20468;-81
2023/02/09 11:50:56;;;;;;;15.93;8.63;;;;;;;3.09;54.73;102414.09;4989702;28;20153;-78
2023/02/09 11:53:41;;;;;;;15.55;8.65;;;;;;;3.14;54.76;102423.88;4985776;28;20181;-77
2023/02/09 11:56:16;;;;;;;;;;;;;;;3.20;54.51;102420.72;4986469;28;20097;-77